Time;durP1;ratioP1;P1;durP2;ratioP2;P2;SDS_P1;SDS_P2;PMS_P1;PMS_P2;Temp;Humidity;BMP_temperature;BMP_pressure;BME280_temperature;BME280_humidity;BME280_pressure;Samples;Min_cycle;Max_cycle;Signal;HPM_P1;HPM_P2
2021/05/16 00:00:53;;;;;;;;;;;;;;;23.77;64.66;100555.25;5043290;28;1287;-77
2021/05/16 00:03:19;;;;;;;;;;;;;;;23.81;64.03;100558.19;5033103;28;1866;-71
2021/05/16 00:05:46;;;;;;;;;;;;;;;23.87;63.60;100556.91;5051273;28;838;-78
2021/05/16 00:08:11;;;;;;;;;;;;;;;23.85;63.82;100559.16;5051095;28;1688;-77
2021/05/16 00:10:36;;;;;;;;;;;;;;;23.84;64.17;100554.78;5040026;28;921;-71
2021/05/16 00:13:02;;;;;;;;;;;;;;;23.78;64.46;100556.06;5037076;28;1194;-71
2021/05/16 00:15:29;;;;;;;;;;;;;;;23.72;64.50;100556.19;5050681;28;907;-70
2021/05/16 00:17:54;;;;;;;;;;;;;;;23.88;64.34;100569.50;5050432;28;887;-71
2021/05/16 00:20:22;;;;;;;;;;;;;;;23.91;64.17;100566.94;5050666;28;858;-71
2021/05/16 00:22:47;;;;;;;;;;;;;;;23.93;63.39;100569.38;5050523;28;1910;-71
2021/05/16 00:25:14;;;;;;;;;;;;;;;23.92;63.15;100571.31;5050323;28;846;-71
2021/05/16 00:27:40;;;;;;;;;;;;;;;23.86;63.54;100560.75;5050360;28;815;-71
2021/05/16 00:30:07;;;;;;;;;;;;;;;23.74;63.67;100564.09;5048627;28;1960;-71
2021/05/16 00:32:33;;;;;;;;;;;;;;;23.69;63.79;100567.81;5044068;28;949;-71
2021/05/16 00:34:58;;;;;;;;;;;;;;;23.89;63.58;100568.38;5012785;28;901;-70
2021/05/16 00:37:23;;;;;;;;;;;;;;;23.92;63.13;100575.97;5030266;28;896;-71
2021/05/16 00:39:49;;;;;;;;;;;;;;;23.75;63.77;100573.19;5031644;28;1125;-71
2021/05/16 00:42:14;;;;;;;;;;;;;;;23.78;64.84;100572.56;5036037;28;1121;-82
2021/05/16 00:44:55;;;;;;;;;;;;;;;23.75;64.39;100582.22;5017015;28;1882;-74
2021/05/16 00:47:20;;;;;;;;;;;;;;;23.73;64.06;100568.78;5034669;28;1138;-74
2021/05/16 00:49:45;;;;;;;;;;;;;;;23.69;64.46;100570.56;5035458;28;929;-78
2021/05/16 00:52:11;;;;;;;;;;;;;;;23.66;64.54;100567.63;5035708;28;941;-77
2021/05/16 00:54:36;;;;;;;;;;;;;;;23.64;64.65;100567.97;5035008;28;810;-73
2021/05/16 00:57:01;;;;;;;;;;;;;;;23.66;63.86;100573.13;5034456;28;888;-72
2021/05/16 00:59:26;;;;;;;;;;;;;;;23.66;64.44;100570.38;5034291;28;872;-72
2021/05/16 01:01:53;;;;;;;;;;;;;;;23.58;64.58;100560.19;5046409;28;890;-71
2021/05/16 01:04:18;;;;;;;;;;;;;;;23.67;64.18;100574.78;5054017;28;1878;-72
2021/05/16 01:06:44;;;;;;;;;;;;;;;23.65;64.03;100563.28;5053846;28;1211;-72
2021/05/16 01:09:09;;;;;;;;;;;;;;;23.66;64.26;100554.72;5035753;28;1462;-72
2021/05/16 01:11:34;;;;;;;;;;;;;;;23.65;64.46;100546.78;5045148;28;1691;-72
2021/05/16 01:14:05;;;;;;;;;;;;;;;23.63;64.90;100547.09;5052312;28;891;-74
2021/05/16 01:16:30;;;;;;;;;;;;;;;23.57;64.27;100556.63;5037899;28;1742;-74
2021/05/16 01:18:56;;;;;;;;;;;;;;;23.55;64.72;100560.81;5026657;28;1495;-74
2021/05/16 01:21:21;;;;;;;;;;;;;;;23.53;65.10;100555.66;5023894;28;1996;-74
2021/05/16 01:23:48;;;;;;;;;;;;;;;23.50;64.70;100553.50;5046001;28;1915;-74
2021/05/16 01:26:13;;;;;;;;;;;;;;;23.48;64.74;100547.53;5042615;28;1171;-73
2021/05/16 01:28:39;;;;;;;;;;;;;;;23.48;64.68;100544.78;5042985;28;1971;-73
2021/05/16 01:31:05;;;;;;;;;;;;;;;23.50;65.11;100550.75;5039130;28;1747;-73
2021/05/16 01:33:30;;;;;;;;;;;;;;;23.49;65.07;100549.16;5047851;28;2246;-74
2021/05/16 01:35:56;;;;;;;;;;;;;;;23.48;64.90;100550.28;5051502;28;1563;-75
2021/05/16 01:38:21;;;;;;;;;;;;;;;23.48;64.32;100550.28;5052095;28;1507;-71
2021/05/16 01:40:46;;;;;;;;;;;;;;;23.48;64.83;100544.78;5047801;28;1954;-73
2021/05/16 01:43:13;;;;;;;;;;;;;;;23.48;65.13;100553.03;5046954;28;1870;-76
2021/05/16 01:45:38;;;;;;;;;;;;;;;23.46;64.53;100555.28;5052375;28;1514;-76
2021/05/16 01:48:04;;;;;;;;;;;;;;;23.43;64.71;100551.25;5034781;28;1612;-76
2021/05/16 01:50:31;;;;;;;;;;;;;;;23.43;64.53;100553.97;5049481;28;2833;-76
2021/05/16 01:52:58;;;;;;;;;;;;;;;23.42;64.68;100560.63;5051621;28;1502;-76
2021/05/16 01:55:23;;;;;;;;;;;;;;;23.44;64.68;100546.53;5052176;28;1526;-71
2021/05/16 01:57:49;;;;;;;;;;;;;;;23.55;63.91;100549.84;5051808;28;1593;-71
2021/05/16 02:00:24;;;;;;;;;;;;;;;23.53;64.93;100547.41;5046001;28;2504;-76
2021/05/16 02:02:49;;;;;;;;;;;;;;;23.50;64.99;100545.28;5051600;28;1486;-75
2021/05/16 02:05:15;;;;;;;;;;;;;;;23.46;64.85;100550.63;5046029;28;1960;-73
2021/05/16 02:07:41;;;;;;;;;;;;;;;23.48;64.07;100551.09;5051753;28;1579;-76
2021/05/16 02:10:07;;;;;;;;;;;;;;;23.46;64.35;100553.38;5051845;28;1541;-75
2021/05/16 02:12:32;;;;;;;;;;;;;;;23.45;64.78;100559.97;5051983;28;1746;-75
2021/05/16 02:14:57;;;;;;;;;;;;;;;23.45;64.78;100561.91;5051532;28;1531;-74
2021/05/16 02:17:23;;;;;;;;;;;;;;;23.43;64.44;100558.69;5051658;28;1514;-71
2021/05/16 02:19:48;;;;;;;;;;;;;;;23.45;64.83;100553.69;5051073;28;1486;-72
2021/05/16 02:22:14;;;;;;;;;;;;;;;23.43;64.82;100559.47;5049897;28;1939;-72
2021/05/16 02:24:41;;;;;;;;;;;;;;;23.51;63.97;100557.91;5052452;28;1902;-70
2021/05/16 02:27:06;;;;;;;;;;;;;;;23.71;63.59;100549.06;5039861;28;1197;-73
2021/05/16 02:29:31;;;;;;;;;;;;;;;23.69;63.84;100554.06;5037828;28;1843;-74
2021/05/16 02:31:57;;;;;;;;;;;;;;;23.70;63.62;100543.88;5040986;28;946;-71
2021/05/16 02:34:22;;;;;;;;;;;;;;;23.70;63.52;100557.63;5041904;28;1750;-72
2021/05/16 02:36:48;;;;;;;;;;;;;;;23.72;63.19;100549.84;5038320;28;1224;-71
2021/05/16 02:39:13;;;;;;;;;;;;;;;23.72;63.13;100544.34;5042478;28;1177;-71
2021/05/16 02:41:39;;;;;;;;;;;;;;;23.75;62.83;100545.69;5032048;28;884;-71
2021/05/16 02:44:04;;;;;;;;;;;;;;;23.75;62.99;100553.94;5031873;28;1898;-71
2021/05/16 02:46:30;;;;;;;;;;;;;;;23.75;62.76;100553.94;5031887;28;869;-71
2021/05/16 02:48:55;;;;;;;;;;;;;;;23.80;66.53;100548.28;5039418;28;1667;-71
2021/05/16 02:51:21;;;;;;;;;;;;;;;23.66;62.62;100545.63;5040986;28;937;-71
2021/05/16 02:53:47;;;;;;;;;;;;;;;23.66;63.03;100540.13;5032116;28;936;-72
2021/05/16 02:56:12;;;;;;;;;;;;;;;23.76;62.57;100541.78;5031877;28;999;-72
2021/05/16 02:58:37;;;;;;;;;;;;;;;23.70;63.24;100541.13;5031797;28;945;-71
2021/05/16 03:01:03;;;;;;;;;;;;;;;23.63;63.11;100547.09;5031915;28;1268;-71
2021/05/16 03:03:28;;;;;;;;;;;;;;;23.60;63.14;100552.41;5040246;28;1877;-71
2021/05/16 03:05:53;;;;;;;;;;;;;;;23.58;62.95;100560.97;5051431;28;865;-71
2021/05/16 03:08:19;;;;;;;;;;;;;;;23.57;63.17;100562.13;5051492;28;854;-71
2021/05/16 03:10:44;;;;;;;;;;;;;;;23.58;63.32;100571.16;5051484;28;858;-71
2021/05/16 03:13:09;;;;;;;;;;;;;;;23.56;62.95;100574.22;5047795;28;1772;-71
2021/05/16 03:15:35;;;;;;;;;;;;;;;23.55;63.13;100563.56;5036329;28;931;-71
2021/05/16 03:18:00;;;;;;;;;;;;;;;23.54;63.72;100579.25;5043905;28;869;-71
2021/05/16 03:20:25;;;;;;;;;;;;;;;23.71;62.27;100573.00;5031395;28;918;-71
2021/05/16 03:22:51;;;;;;;;;;;;;;;23.75;62.02;100575.94;5031267;28;1285;-71
2021/05/16 03:25:16;;;;;;;;;;;;;;;23.76;62.56;100577.53;5031291;28;1950;-71
2021/05/16 03:27:41;;;;;;;;;;;;;;;23.75;63.34;100579.47;5032760;28;2075;-70
2021/05/16 03:30:09;;;;;;;;;;;;;;;23.64;63.32;100576.22;5039534;28;885;-70
2021/05/16 03:32:36;;;;;;;;;;;;;;;23.59;62.98;100581.84;5039927;28;910;-70
2021/05/16 03:35:01;;;;;;;;;;;;;;;23.66;62.70;100587.72;5032237;28;1669;-70
2021/05/16 03:37:26;;;;;;;;;;;;;;;23.72;62.40;100585.59;5038383;28;2072;-74
2021/05/16 03:39:52;;;;;;;;;;;;;;;23.76;62.17;100580.28;5028010;28;1998;-72
2021/05/16 03:42:17;;;;;;;;;;;;;;;23.74;62.50;100583.34;5042971;28;1826;-72
2021/05/16 03:44:42;;;;;;;;;;;;;;;23.66;62.94;100584.97;5038792;28;1991;-68
2021/05/16 03:47:07;;;;;;;;;;;;;;;23.57;63.15;100581.38;5038447;28;1685;-68
2021/05/16 03:49:33;;;;;;;;;;;;;;;23.52;63.46;100579.59;5044318;28;1912;-68
2021/05/16 03:51:58;;;;;;;;;;;;;;;23.47;64.13;100579.72;5038185;28;877;-68
2021/05/16 03:54:23;;;;;;;;;;;;;;;23.46;63.48;100571.78;5035886;28;1733;-68
2021/05/16 03:56:49;;;;;;;;;;;;;;;23.42;63.63;100574.38;5046049;28;949;-68
2021/05/16 03:59:14;;;;;;;;;;;;;;;23.61;62.97;100568.59;5040103;28;818;-71
2021/05/16 04:01:39;;;;;;;;;;;;;;;23.68;63.23;100577.22;5042570;28;3250;-71
2021/05/16 04:04:05;;;;;;;;;;;;;;;23.70;62.06;100579.63;5050417;28;1878;-71
2021/05/16 04:06:30;;;;;;;;;;;;;;;23.71;62.28;100578.50;5050644;28;825;-71
2021/05/16 04:08:55;;;;;;;;;;;;;;;23.70;62.16;100580.44;5050547;28;878;-71
2021/05/16 04:11:21;;;;;;;;;;;;;;;23.74;62.33;100577.84;5050391;28;909;-71
2021/05/16 04:13:46;;;;;;;;;;;;;;;23.73;61.91;100587.25;5050203;28;918;-71
2021/05/16 04:16:12;;;;;;;;;;;;;;;23.75;62.50;100584.97;5049775;28;819;-71
2021/05/16 04:18:38;;;;;;;;;;;;;;;23.70;61.58;100587.88;5047299;28;2053;-71
2021/05/16 04:21:03;;;;;;;;;;;;;;;23.73;61.76;100596.28;5043115;28;1638;-71
2021/05/16 04:23:29;;;;;;;;;;;;;;;23.71;61.13;100595.00;5035549;28;1977;-71
2021/05/16 04:25:55;;;;;;;;;;;;;;;23.74;61.78;100594.34;5050107;28;1171;-71
2021/05/16 04:28:20;;;;;;;;;;;;;;;23.71;61.62;100595.00;5040702;28;892;-71
2021/05/16 04:30:45;;;;;;;;;;;;;;;23.70;61.17;100596.13;5029822;28;951;-71
2021/05/16 04:33:11;;;;;;;;;;;;;;;23.71;61.27;100603.25;5032892;28;1773;-71
2021/05/16 04:35:36;;;;;;;;;;;;;;;23.71;61.40;100606.81;5049913;28;912;-70
2021/05/16 04:38:01;;;;;;;;;;;;;;;23.64;59.72;100603.72;5050417;28;1230;-69
2021/05/16 04:40:27;;;;;;;;;;;;;;;23.27;58.46;100605.81;5050485;28;914;-69
2021/05/16 04:42:52;;;;;;;;;;;;;;;23.13;60.08;100599.59;5043072;28;1702;-69
2021/05/16 04:45:18;;;;;;;;;;;;;;;23.04;59.43;100595.97;5036480;28;1991;-69
2021/05/16 04:47:44;;;;;;;;;;;;;;;23.07;59.47;100601.66;5034494;28;861;-69
2021/05/16 04:50:10;;;;;;;;;;;;;;;23.06;60.13;100608.28;5030209;28;861;-69
2021/05/16 04:52:36;;;;;;;;;;;;;;;23.03;60.86;100610.84;5036448;28;1789;-69
2021/05/16 04:55:01;;;;;;;;;;;;;;;23.01;60.42;100613.88;5006043;28;11275;-69
2021/05/16 04:57:26;;;;;;;;;;;;;;;23.00;60.67;100619.69;5029255;28;1996;-69
2021/05/16 04:59:53;;;;;;;;;;;;;;;22.98;60.52;100616.44;5039705;28;3163;-69
2021/05/16 05:02:19;;;;;;;;;;;;;;;22.97;61.03;100621.13;5044611;28;1591;-69
2021/05/16 05:04:45;;;;;;;;;;;;;;;22.96;61.34;100611.28;5042545;28;1906;-69
2021/05/16 05:07:10;;;;;;;;;;;;;;;22.93;61.34;100620.94;5038113;28;1426;-69
2021/05/16 05:09:36;;;;;;;;;;;;;;;22.96;61.47;100624.16;5044291;28;822;-69
2021/05/16 05:12:02;;;;;;;;;;;;;;;22.96;61.75;100619.50;5028212;28;858;-70
2021/05/16 05:14:28;;;;;;;;;;;;;;;22.96;61.72;100624.16;5027884;28;798;-71
2021/05/16 05:16:54;;;;;;;;;;;;;;;21.84;57.85;100620.09;5028213;28;850;-70
2021/05/16 05:19:19;;;;;;;;;;;;;;;21.43;60.49;100618.13;5028311;28;788;-70
2021/05/16 05:21:45;;;;;;;;;;;;;;;21.27;60.52;100614.81;5025385;28;1493;-70
2021/05/16 05:24:10;;;;;;;;;;;;;;;21.24;61.01;100612.72;5033914;28;2001;-71
2021/05/16 05:26:36;;;;;;;;;;;;;;;21.00;62.89;100613.66;5036437;28;810;-70
2021/05/16 05:29:01;;;;;;;;;;;;;;;20.88;62.94;100616.06;5032304;28;1760;-70
2021/05/16 05:31:26;;;;;;;;;;;;;;;20.98;62.34;100617.81;5041967;28;1702;-71
2021/05/16 05:33:52;;;;;;;;;;;;;;;20.89;63.33;100628.66;5035797;28;1745;-70
2021/05/16 05:36:17;;;;;;;;;;;;;;;20.69;62.55;100630.59;5038453;28;975;-71
2021/05/16 05:38:42;;;;;;;;;;;;;;;20.74;63.05;100624.22;5033930;28;1595;-70
2021/05/16 05:41:08;;;;;;;;;;;;;;;21.66;60.89;100619.88;5041285;28;1851;-74
2021/05/16 05:43:34;;;;;;;;;;;;;;;21.81;59.41;100620.69;5041204;28;1973;-75
2021/05/16 05:45:59;;;;;;;;;;;;;;;22.01;60.94;100625.75;5031270;28;1628;-73
2021/05/16 05:48:26;;;;;;;;;;;;;;;22.25;61.17;100611.81;5044554;28;755;-73
2021/05/16 05:50:51;;;;;;;;;;;;;;;22.33;60.89;100621.25;5041340;28;1769;-75
2021/05/16 05:53:17;;;;;;;;;;;;;;;22.57;61.98;100609.19;5029603;28;1469;-71
2021/05/16 05:55:42;;;;;;;;;;;;;;;22.61;61.97;100615.69;5042772;28;1583;-73
2021/05/16 05:58:07;;;;;;;;;;;;;;;22.61;61.57;100624.72;5044902;28;872;-72
2021/05/16 06:00:33;;;;;;;;;;;;;;;22.60;61.43;100616.81;5035616;28;1547;-71
2021/05/16 06:02:58;;;;;;;;;;;;;;;22.66;62.03;100623.81;5041254;28;1665;-73
2021/05/16 06:05:25;;;;;;;;;;;;;;;22.70;62.29;100624.81;5041007;28;1940;-70
2021/05/16 06:07:51;;;;;;;;;;;;;;;22.64;61.90;100607.66;5014720;28;1716;-72
2021/05/16 06:10:17;;;;;;;;;;;;;;;22.71;62.16;100618.19;5035566;28;1506;-72
2021/05/16 06:12:42;;;;;;;;;;;;;;;22.76;62.29;100620.81;5039237;28;1037;-71
2021/05/16 06:15:08;;;;;;;;;;;;;;;22.80;62.69;100635.56;5040573;28;2968;-71
2021/05/16 06:17:33;;;;;;;;;;;;;;;22.80;62.40;100629.22;5037076;28;2767;-71
2021/05/16 06:19:58;;;;;;;;;;;;;;;22.81;62.64;100637.16;5038046;28;1536;-70
2021/05/16 06:22:24;;;;;;;;;;;;;;;22.88;63.39;100639.50;5040438;28;2328;-65
2021/05/16 06:24:49;;;;;;;;;;;;;;;22.92;62.63;100635.81;5039873;28;1977;-66
2021/05/16 06:27:14;;;;;;;;;;;;;;;22.89;62.45;100641.91;5044856;28;1720;-72
2021/05/16 06:29:40;;;;;;;;;;;;;;;22.92;62.19;100646.78;5046296;28;1654;-71
2021/05/16 06:32:08;;;;;;;;;;;;;;;22.79;61.57;100644.09;5046886;28;1771;-72
2021/05/16 06:34:34;;;;;;;;;;;;;;;22.79;60.79;100644.09;5040300;28;2405;-71
2021/05/16 06:37:00;;;;;;;;;;;;;;;22.77;60.46;100647.16;5044237;28;1619;-69
2021/05/16 06:39:26;;;;;;;;;;;;;;;22.76;60.70;100650.19;5047938;28;1627;-71
2021/05/16 06:41:52;;;;;;;;;;;;;;;22.83;61.11;100648.66;5050061;28;1060;-74
2021/05/16 06:44:17;;;;;;;;;;;;;;;22.87;60.90;100646.91;5050136;28;1931;-69
2021/05/16 06:46:42;;;;;;;;;;;;;;;22.69;59.02;100636.91;5050141;28;1467;-70
2021/05/16 06:49:07;;;;;;;;;;;;;;;22.58;58.28;100643.75;5044915;28;1798;-71
2021/05/16 06:51:35;;;;;;;;;;;;;;;22.49;57.51;100647.22;5036671;28;1771;-71
2021/05/16 06:54:00;;;;;;;;;;;;;;;22.47;57.87;100656.91;5033883;28;1739;-70
2021/05/16 06:56:26;;;;;;;;;;;;;;;22.54;58.75;100652.63;5038129;28;1467;-71
2021/05/16 06:58:51;;;;;;;;;;;;;;;22.58;58.17;100651.97;5042358;28;998;-70
2021/05/16 07:01:16;;;;;;;;;;;;;;;22.71;58.59;100656.63;5040604;28;1527;-74
2021/05/16 07:03:44;;;;;;;;;;;;;;;22.82;59.24;100655.28;5045103;28;1874;-73
2021/05/16 07:06:09;;;;;;;;;;;;;;;22.83;58.64;100659.63;5042915;28;1481;-73
2021/05/16 07:08:34;;;;;;;;;;;;;;;22.73;57.56;100665.38;5041423;28;1139;-73
2021/05/16 07:11:01;;;;;;;;;;;;;;;22.63;58.25;100663.66;5036907;28;2351;-73
2021/05/16 07:13:26;;;;;;;;;;;;;;;22.63;57.76;100668.34;5041063;28;1097;-74
2021/05/16 07:15:51;;;;;;;;;;;;;;;22.64;57.36;100665.31;5030348;28;1228;-74
2021/05/16 07:18:17;;;;;;;;;;;;;;;22.62;57.95;100666.75;5048922;28;766;-73
2021/05/16 07:20:42;;;;;;;;;;;;;;;22.66;58.17;100670.50;5032798;28;791;-74
2021/05/16 07:23:07;;;;;;;;;;;;;;;22.77;58.65;100660.88;5016534;28;1894;-71
2021/05/16 07:25:33;;;;;;;;;;;;;;;22.73;58.10;100666.16;5048009;28;1261;-69
2021/05/16 07:27:58;;;;;;;;;;;;;;;22.69;57.85;100659.69;5040832;28;2638;-71
2021/05/16 07:30:23;;;;;;;;;;;;;;;22.57;56.99;100656.66;5048670;28;1278;-70
2021/05/16 07:32:49;;;;;;;;;;;;;;;22.54;57.29;100663.59;5046792;28;1360;-71
2021/05/16 07:35:14;;;;;;;;;;;;;;;22.51;57.26;100658.72;5040905;28;751;-71
2021/05/16 07:37:42;;;;;;;;;;;;;;;22.57;56.67;100656.66;5040436;28;873;-71
2021/05/16 07:40:08;;;;;;;;;;;;;;;22.60;57.09;100653.31;5040096;28;1385;-71
2021/05/16 07:42:33;;;;;;;;;;;;;;;22.56;56.53;100652.31;5046860;28;872;-71
2021/05/16 07:44:59;;;;;;;;;;;;;;;22.49;56.57;100647.22;5043461;28;1961;-70
2021/05/16 07:47:24;;;;;;;;;;;;;;;22.45;56.60;100657.22;5034014;28;810;-71
2021/05/16 07:49:49;;;;;;;;;;;;;;;22.47;56.46;100659.66;5040378;28;857;-71
2021/05/16 07:52:15;;;;;;;;;;;;;;;22.45;56.67;100662.69;5028823;28;767;-71
2021/05/16 07:54:40;;;;;;;;;;;;;;;22.43;56.38;100664.94;5040676;28;1229;-71
2021/05/16 07:57:07;;;;;;;;;;;;;;;22.45;56.31;100665.44;5049708;28;878;-70
2021/05/16 07:59:33;;;;;;;;;;;;;;;22.44;56.43;100663.81;5040359;28;1434;-71
2021/05/16 08:01:59;;;;;;;;;;;;;;;22.45;56.23;100654.47;5036638;28;1427;-71
2021/05/16 08:04:24;;;;;;;;;;;;;;;22.47;56.24;100654.16;5037865;28;1882;-71
2021/05/16 08:06:49;;;;;;;;;;;;;;;22.47;56.53;100662.41;5039453;28;861;-71
2021/05/16 08:09:15;;;;;;;;;;;;;;;22.51;56.28;100658.72;5036843;28;1248;-71
2021/05/16 08:11:40;;;;;;;;;;;;;;;22.54;56.75;100671.03;5049340;28;881;-71
2021/05/16 08:14:05;;;;;;;;;;;;;;;22.54;56.40;100671.03;5049561;28;897;-71
2021/05/16 08:16:31;;;;;;;;;;;;;;;22.61;56.51;100665.09;5049526;28;893;-71
2021/05/16 08:18:57;;;;;;;;;;;;;;;22.59;56.39;100670.91;5049380;28;881;-71
2021/05/16 08:21:22;;;;;;;;;;;;;;;22.55;56.31;100664.41;5048670;28;1397;-71
2021/05/16 08:23:47;;;;;;;;;;;;;;;22.61;56.53;100673.34;5041394;28;1969;-71
2021/05/16 08:26:12;;;;;;;;;;;;;;;22.56;56.24;100660.56;5043508;28;995;-70
2021/05/16 08:28:38;;;;;;;;;;;;;;;22.54;56.17;100668.28;5036110;28;1478;-71
2021/05/16 08:31:03;;;;;;;;;;;;;;;22.46;55.85;100661.59;5042153;28;1389;-71
2021/05/16 08:33:29;;;;;;;;;;;;;;;22.42;55.92;100665.28;5046683;28;1364;-71
2021/05/16 08:35:54;;;;;;;;;;;;;;;22.52;55.44;100657.59;5035524;28;854;-70
2021/05/16 08:38:19;;;;;;;;;;;;;;;22.46;55.54;100653.34;5045104;28;1242;-71
2021/05/16 08:40:45;;;;;;;;;;;;;;;22.40;55.54;100651.84;5036893;28;877;-71
2021/05/16 08:43:10;;;;;;;;;;;;;;;22.49;55.71;100652.72;5029497;28;1890;-71
2021/05/16 08:45:37;;;;;;;;;;;;;;;22.53;55.74;100650.19;5029262;28;921;-70
2021/05/16 08:48:02;;;;;;;;;;;;;;;22.44;55.37;100643.81;5029501;28;853;-71
2021/05/16 08:50:28;;;;;;;;;;;;;;;22.43;55.28;100637.50;5047160;28;1168;-70
2021/05/16 08:52:53;;;;;;;;;;;;;;;;;;5048812;28;806;-71
2021/05/16 08:55:18;;;;;;;;;;;;;;;22.44;55.15;100639.13;5048625;28;1229;-71
2021/05/16 08:57:43;;;;;;;;;;;;;;;22.42;55.22;100637.81;5047109;28;1400;-71
2021/05/16 09:00:10;;;;;;;;;;;;;;;22.40;55.26;100635.38;5037370;28;782;-71
2021/05/16 09:02:54;;;;;;;;;;;;;;;22.41;55.58;100633.44;5044165;28;1388;-71
2021/05/16 09:05:26;;;;;;;;;;;;;;;22.45;55.23;100642.69;5041340;28;1874;-71
2021/05/16 09:08:02;;;;;;;;;;;;;;;22.46;54.96;100644.31;5037542;28;858;-71
2021/05/16 09:10:27;;;;;;;;;;;;;;;22.40;55.11;100640.88;5039692;28;1581;-70
2021/05/16 09:13:05;;;;;;;;;;;;;;;22.38;55.11;100634.06;5045024;28;1553;-71
2021/05/16 09:15:32;;;;;;;;;;;;;;;22.38;55.04;100623.91;5035602;28;1815;-71
2021/05/16 09:17:57;;;;;;;;;;;;;;;22.36;55.08;100623.41;5043579;28;1613;-70
2021/05/16 09:20:24;;;;;;;;;;;;;;;22.41;55.54;100616.97;5042758;28;1586;-71
2021/05/16 09:22:50;;;;;;;;;;;;;;;22.38;54.97;100628.59;5043763;28;1741;-71
2021/05/16 09:25:16;;;;;;;;;;;;;;;22.39;55.21;100631.00;5047496;28;1973;-71
2021/05/16 09:27:43;;;;;;;;;;;;;;;22.32;55.36;100627.88;5047245;28;1730;-70
2021/05/16 09:30:29;;;;;;;;;;;;;;;22.31;55.65;100624.31;5040390;28;3163;-70
2021/05/16 09:32:58;;;;;;;;;;;;;;;22.32;55.34;100633.38;5052201;28;1193;-70
2021/05/16 09:35:34;;;;;;;;;;;;;;;22.29;55.83;100620.25;5046057;28;1748;-70
2021/05/16 09:38:23;;;;;;;;;;;;;;;22.23;55.64;100616.78;5036861;28;822;-70
2021/05/16 09:40:49;;;;;;;;;;;;;;;22.26;56.01;100615.41;5026988;28;1062;-70
2021/05/16 09:43:16;;;;;;;;;;;;;;;22.27;55.86;100612.31;5032617;28;1878;-71
2021/05/16 09:45:45;;;;;;;;;;;;;;;22.33;55.57;100613.03;5032685;28;827;-71
2021/05/16 09:48:16;;;;;;;;;;;;;;;22.30;55.61;100610.91;5033466;28;1705;-70
2021/05/16 09:50:42;;;;;;;;;;;;;;;22.29;55.93;100614.75;5032125;28;804;-71
2021/05/16 09:53:07;;;;;;;;;;;;;;;22.27;56.38;100617.00;5034789;28;1823;-71
2021/05/16 09:55:35;;;;;;;;;;;;;;;22.26;55.97;100599.75;5035120;28;1240;-70
2021/05/16 09:58:01;;;;;;;;;;;;;;;22.24;56.16;100599.22;5036795;28;1708;-70
2021/05/16 10:00:27;;;;;;;;;;;;;;;22.26;56.21;100599.75;5044069;28;1785;-70
2021/05/16 10:02:52;;;;;;;;;;;;;;;22.23;56.23;100600.31;5040054;28;1655;-71
2021/05/16 10:05:17;;;;;;;;;;;;;;;22.21;55.95;100593.53;5043273;28;1917;-71
2021/05/16 10:07:42;;;;;;;;;;;;;;;22.23;55.87;100591.28;5032455;28;870;-70
2021/05/16 10:10:08;;;;;;;;;;;;;;;22.22;55.70;100589.66;5029413;28;1333;-70
2021/05/16 10:12:37;;;;;;;;;;;;;;;22.21;56.10;100590.78;5051360;28;841;-71
2021/05/16 10:15:06;;;;;;;;;;;;;;;22.23;55.84;100596.75;5052714;28;795;-71
2021/05/16 10:17:34;;;;;;;;;;;;;;;22.23;56.33;100588.53;5027017;28;1704;-71
2021/05/16 10:20:01;;;;;;;;;;;;;;;22.22;55.89;100586.94;5016579;28;1733;-70
2021/05/16 10:22:27;;;;;;;;;;;;;;;22.22;55.63;100586.94;5040543;28;1448;-70
2021/05/16 10:24:53;;;;;;;;;;;;;;;22.20;55.71;100580.94;5044883;28;1973;-70
2021/05/16 10:27:21;;;;;;;;;;;;;;;22.19;56.09;100577.34;5045693;28;1591;-70
2021/05/16 10:30:00;;;;;;;;;;;;;;;22.18;56.24;100569.47;5039123;28;802;-70
2021/05/16 10:32:37;;;;;;;;;;;;;;;22.16;56.92;100560.72;5043067;28;1674;-70
2021/05/16 10:35:06;;;;;;;;;;;;;;;22.20;56.98;100579.00;5034031;28;1719;-70
2021/05/16 10:37:34;;;;;;;;;;;;;;;22.22;56.41;100576.75;5038476;28;1785;-70
2021/05/16 10:40:00;;;;;;;;;;;;;;;22.17;56.35;100571.38;5034601;28;1141;-70
2021/05/16 10:42:35;;;;;;;;;;;;;;;22.11;55.59;100570.69;5031566;28;915;-70
2021/05/16 10:45:08;;;;;;;;;;;;;;;22.17;55.58;100562.34;5031534;28;1937;-70
2021/05/16 10:47:43;;;;;;;;;;;;;;;22.13;55.67;100553.91;5033972;28;1693;-70
2021/05/16 10:50:08;;;;;;;;;;;;;;;22.13;55.89;100562.97;5051150;28;1215;-71
2021/05/16 10:52:34;;;;;;;;;;;;;;;22.13;56.21;100548.41;5051151;28;1674;-70
2021/05/16 10:54:59;;;;;;;;;;;;;;;22.16;56.23;100550.56;5036557;28;1113;-71
2021/05/16 10:57:34;;;;;;;;;;;;;;;22.19;56.56;100538.94;5040225;28;1904;-70
2021/05/16 11:00:19;;;;;;;;;;;;;;;22.18;56.80;100540.09;5032338;28;826;-71
2021/05/16 11:03:03;;;;;;;;;;;;;;;22.18;56.44;100547.50;5030832;28;1167;-70
2021/05/16 11:05:48;;;;;;;;;;;;;;;22.18;57.11;100523.63;5031238;28;1870;-70
2021/05/16 11:08:16;;;;;;;;;;;;;;;22.21;56.90;100527.69;5036002;28;1681;-70
2021/05/16 11:10:45;;;;;;;;;;;;;;;22.18;57.19;100528.31;5023664;28;1557;-70
2021/05/16 11:13:15;;;;;;;;;;;;;;;22.16;57.28;100527.81;5046250;28;1458;-70
2021/05/16 11:15:47;;;;;;;;;;;;;;;22.20;57.39;100526.88;5042375;28;1894;-71
2021/05/16 11:18:20;;;;;;;;;;;;;;;22.14;57.67;100517.94;5044889;28;1756;-71
2021/05/16 11:20:52;;;;;;;;;;;;;;;22.22;57.70;100512.84;5043560;28;1800;-71
2021/05/16 11:23:27;;;;;;;;;;;;;;;22.22;57.76;100513.66;5038140;28;1898;-72
2021/05/16 11:25:55;;;;;;;;;;;;;;;22.23;57.58;100522.69;5035503;28;1950;-72
2021/05/16 11:28:22;;;;;;;;;;;;;;;22.18;58.41;100509.09;5031932;28;881;-72
2021/05/16 11:30:49;;;;;;;;;;;;;;;22.08;57.69;100504.66;5041277;28;3241;-72
2021/05/16 11:33:44;;;;;;;;;;;;;;;22.06;58.37;100509.66;5043551;28;1831;-71
2021/05/16 11:36:10;;;;;;;;;;;;;;;22.06;57.90;100501.44;5031145;28;1558;-72
2021/05/16 11:38:38;;;;;;;;;;;;;;;22.01;58.47;100517.97;5039444;28;2273;-72
2021/05/16 11:41:03;;;;;;;;;;;;;;;22.00;58.39;100505.41;5050365;28;1521;-71
2021/05/16 11:43:36;;;;;;;;;;;;;;;21.97;58.31;100500.53;5040985;28;1885;-72
2021/05/16 11:46:03;;;;;;;;;;;;;;;21.93;58.53;100503.06;5043483;28;1997;-72
2021/05/16 11:48:37;;;;;;;;;;;;;;;21.94;58.28;100500.03;5038790;28;862;-72
2021/05/16 11:51:07;;;;;;;;;;;;;;;21.95;58.30;100487.13;5030487;28;894;-72
2021/05/16 11:53:33;;;;;;;;;;;;;;;21.97;58.44;100498.59;5043446;28;1155;-72
2021/05/16 11:56:08;;;;;;;;;;;;;;;22.00;58.04;100491.69;5044126;28;2098;-71
2021/05/16 11:58:36;;;;;;;;;;;;;;;21.96;58.26;100491.50;5030374;28;3180;-72
2021/05/16 12:01:01;;;;;;;;;;;;;;;21.99;58.18;100484.56;5029825;28;869;-71
2021/05/16 12:03:26;;;;;;;;;;;;;;;21.97;58.17;100489.56;5040440;28;2111;-72
2021/05/16 12:06:02;;;;;;;;;;;;;;;21.97;58.29;100484.06;5034040;28;2075;-72
2021/05/16 12:08:27;;;;;;;;;;;;;;;21.96;58.22;100477.78;5038012;28;1601;-72
2021/05/16 12:11:06;;;;;;;;;;;;;;;21.99;58.32;100490.84;5037008;28;763;-71
2021/05/16 12:13:32;;;;;;;;;;;;;;;21.95;58.57;100484.38;5029189;28;885;-69
2021/05/16 12:16:18;;;;;;;;;;;;;;;22.00;58.82;100489.75;5028542;28;885;-69
2021/05/16 12:18:45;;;;;;;;;;;;;;;22.05;58.79;100483.34;5036333;28;1726;-69
2021/05/16 12:21:10;;;;;;;;;;;;;;;22.10;58.52;100485.97;5035334;28;1603;-69
2021/05/16 12:23:36;;;;;;;;;;;;;;;22.14;58.83;100487.78;5038426;28;1902;-69
2021/05/16 12:26:03;;;;;;;;;;;;;;;22.19;58.80;100486.81;5041527;28;1723;-68
2021/05/16 12:28:28;;;;;;;;;;;;;;;22.13;58.97;100480.69;5040050;28;1663;-69
2021/05/16 12:30:55;;;;;;;;;;;;;;;22.19;59.41;100484.09;5038990;28;1701;-74
2021/05/16 12:33:20;;;;;;;;;;;;;;;22.28;58.85;100478.72;5038245;28;894;-67
2021/05/16 12:35:46;;;;;;;;;;;;;;;22.23;58.97;100485.09;5041735;28;1707;-67
2021/05/16 12:38:12;;;;;;;;;;;;;;;22.13;58.74;100471.63;5034429;28;1681;-67
2021/05/16 12:40:37;;;;;;;;;;;;;;;22.14;59.10;100459.53;5038919;28;1773;-67
2021/05/16 12:43:04;;;;;;;;;;;;;;;22.04;58.64;100462.53;5036293;28;1598;-68
2021/05/16 12:45:30;;;;;;;;;;;;;;;22.05;58.47;100466.88;5033593;28;1917;-68
2021/05/16 12:47:58;;;;;;;;;;;;;;;22.02;58.79;100465.56;5028347;28;814;-68